Time;durP1;ratioP1;P1;durP2;ratioP2;P2;SDS_P1;SDS_P2;PMS_P1;PMS_P2;Temp;Humidity;BMP_temperature;BMP_pressure;BME280_temperature;BME280_humidity;BME280_pressure;Samples;Min_cycle;Max_cycle;Signal;HPM_P1;HPM_P2
2022/10/13 00:00:56;;;;;;;28.20;11.88;;;9.90;99.90;;;;;;5023759;28;20449;-64
2022/10/13 00:03:22;;;;;;;25.08;12.55;;;9.60;99.90;;;;;;5050208;28;20048;-64
2022/10/13 00:05:49;;;;;;;24.83;12.32;;;9.70;99.90;;;;;;5041988;28;20134;-63
2022/10/13 00:08:18;;;;;;;22.05;12.77;;;9.70;99.90;;;;;;5041332;28;20049;-64
2022/10/13 00:10:45;;;;;;;24.98;12.38;;;9.50;99.90;;;;;;5040536;28;20052;-64
2022/10/13 00:13:11;;;;;;;27.90;13.10;;;9.60;99.90;;;;;;5057341;28;20498;-63
2022/10/13 00:15:43;;;;;;;24.38;12.27;;;9.70;99.90;;;;;;5041504;28;20040;-63
2022/10/13 00:18:09;;;;;;;26.63;12.88;;;9.70;99.90;;;;;;5040163;28;20167;-65
2022/10/13 00:20:39;;;;;;;26.65;12.93;;;9.60;99.90;;;;;;5030110;28;20040;-64
2022/10/13 00:23:05;;;;;;;23.23;12.63;;;9.80;99.90;;;;;;5056827;28;20561;-64
2022/10/13 00:25:30;;;;;;;24.85;12.40;;;9.70;99.90;;;;;;5032547;28;20234;-66
2022/10/13 00:27:56;;;;;;;25.40;13.07;;;9.70;99.90;;;;;;5038762;28;20071;-65
2022/10/13 00:30:22;;;;;;;24.83;13.57;;;9.60;99.90;;;;;;5049310;28;20062;-64
2022/10/13 00:32:47;;;;;;;22.48;13.25;;;9.70;99.90;;;;;;5032866;28;20463;-64
2022/10/13 00:35:13;;;;;;;24.30;13.20;;;9.70;99.90;;;;;;5057562;28;20098;-64
2022/10/13 00:37:38;;;;;;;27.08;13.85;;;9.80;99.90;;;;;;5049166;28;20246;-64
2022/10/13 00:40:06;;;;;;;24.33;13.80;;;9.70;99.90;;;;;;5039354;28;20589;-63
2022/10/13 00:42:32;;;;;;;24.77;14.07;;;9.70;99.90;;;;;;5039656;28;20036;-63
2022/10/13 00:45:23;;;;;;;21.88;13.57;;;9.70;99.90;;;;;;5059903;28;20383;-64
2022/10/13 00:47:55;;;;;;;22.45;13.98;;;9.80;99.90;;;;;;5059272;28;20046;-64
2022/10/13 00:50:26;;;;;;;26.50;13.82;;;9.80;99.90;;;;;;5058538;28;20052;-65
2022/10/13 00:52:53;;;;;;;24.27;14.60;;;9.60;99.90;;;;;;5078824;28;20055;-64
2022/10/13 00:55:21;;;;;;;21.88;14.20;;;9.70;99.90;;;;;;5059057;28;20044;-65
2022/10/13 00:57:54;;;;;;;27.88;14.32;;;9.80;99.90;;;;;;5053587;28;20541;-65
2022/10/13 01:00:24;;;;;;;32.30;15.30;;;9.70;99.90;;;;;;5059736;28;20181;-64
2022/10/13 01:02:50;;;;;;;24.17;14.93;;;9.80;99.90;;;;;;5084286;28;20305;-63
2022/10/13 01:05:18;;;;;;;22.92;13.80;;;9.80;99.90;;;;;;5065550;28;20136;-64
2022/10/13 01:07:47;;;;;;;26.98;14.70;;;9.70;99.90;;;;;;5059251;28;20074;-64
2022/10/13 01:10:23;;;;;;;27.40;14.40;;;9.60;99.90;;;;;;5059439;28;20040;-64
2022/10/13 01:12:59;;;;;;;24.60;15.10;;;9.60;99.90;;;;;;5057168;28;20036;-64
2022/10/13 01:16:00;;;;;;;28.27;15.27;;;9.70;99.90;;;;;;5058821;28;20032;-63
2022/10/13 01:19:01;;;;;;;30.25;15.07;;;9.60;99.90;;;;;;5043462;28;20048;-64
2022/10/13 01:21:32;;;;;;;26.40;14.23;;;9.90;99.90;;;;;;5058178;28;20036;-64
2022/10/13 01:24:19;;;;;;;24.77;15.35;;;9.60;99.90;;;;;;5059465;28;20443;-64
2022/10/13 01:27:15;;;;;;;30.27;16.60;;;9.80;99.90;;;;;;5059911;28;20075;-64
2022/10/13 01:30:07;;;;;;;24.40;14.95;;;9.70;99.90;;;;;;5047947;28;20416;-64
2022/10/13 01:32:45;;;;;;;26.45;15.52;;;9.60;99.90;;;;;;5059847;28;20137;-64
2022/10/13 01:35:23;;;;;;;26.17;16.45;;;9.80;99.90;;;;;;5058949;28;20386;-63
2022/10/13 01:38:00;;;;;;;29.15;16.48;;;9.80;99.90;;;;;;5059745;28;20048;-66
2022/10/13 01:40:31;;;;;;;28.83;15.60;;;9.70;99.90;;;;;;5075834;28;20055;-63
2022/10/13 01:43:22;;;;;;;31.13;17.00;;;9.70;99.90;;;;;;5059620;28;20494;-63
2022/10/13 01:46:05;;;;;;;30.90;17.25;;;9.90;99.90;;;;;;5058775;28;20060;-64
2022/10/13 01:48:32;;;;;;;29.50;15.80;;;9.90;99.90;;;;;;5057875;28;20127;-63
2022/10/13 01:50:59;;;;;;;31.98;16.23;;;9.70;99.90;;;;;;5050526;28;20564;-63
2022/10/13 01:53:26;;;;;;;30.05;17.02;;;9.60;99.90;;;;;;5058732;28;20501;-64
2022/10/13 01:55:55;;;;;;;30.65;16.83;;;9.60;99.90;;;;;;5032236;28;20067;-63
2022/10/13 01:58:24;;;;;;;30.48;17.25;;;9.70;99.90;;;;;;5047996;28;20101;-64
2022/10/13 02:01:20;;;;;;;27.40;17.23;;;9.80;99.90;;;;;;5042095;28;20036;-63
2022/10/13 02:03:46;;;;;;;27.10;16.60;;;9.70;99.90;;;;;;5054204;28;20126;-64
2022/10/13 02:06:23;;;;;;;28.65;16.85;;;9.70;99.90;;;;;;5083068;28;20069;-64
2022/10/13 02:09:05;;;;;;;28.05;16.73;;;9.60;99.90;;;;;;5058318;28;20051;-64
2022/10/13 02:11:31;;;;;;;28.63;16.77;;;9.70;99.90;;;;;;5040947;28;20151;-63
2022/10/13 02:14:12;;;;;;;28.67;17.65;;;9.80;99.90;;;;;;5058054;28;20039;-65
2022/10/13 02:16:42;;;;;;;29.63;16.95;;;9.90;99.90;;;;;;5058309;28;20123;-64
2022/10/13 02:19:11;;;;;;;28.65;17.05;;;9.70;99.90;;;;;;5057759;28;20082;-64
2022/10/13 02:21:38;;;;;;;26.75;16.40;;;9.70;99.90;;;;;;5059251;28;20413;-63
2022/10/13 02:24:04;;;;;;;31.23;16.80;;;9.60;99.90;;;;;;5058721;28;20853;-64
2022/10/13 02:26:32;;;;;;;31.30;17.98;;;9.80;99.90;;;;;;5040185;28;20067;-64
2022/10/13 02:28:58;;;;;;;28.55;17.60;;;9.60;99.90;;;;;;5058560;28;20050;-64
2022/10/13 02:31:24;;;;;;;27.05;17.20;;;9.60;99.90;;;;;;5056327;28;20052;-64
2022/10/13 02:33:49;;;;;;;29.33;17.33;;;9.60;99.90;;;;;;5035237;28;20073;-64
2022/10/13 02:36:15;;;;;;;28.42;17.63;;;9.80;99.90;;;;;;5058492;28;20044;-65
2022/10/13 02:38:41;;;;;;;29.65;16.77;;;9.80;99.90;;;;;;5069692;28;20044;-64
2022/10/13 02:41:07;;;;;;;29.23;16.48;;;9.60;99.90;;;;;;5056606;28;20040;-64
2022/10/13 02:43:36;;;;;;;28.02;17.08;;;9.60;99.90;;;;;;5057871;28;20048;-64
2022/10/13 02:46:02;;;;;;;25.85;16.15;;;9.60;99.90;;;;;;5031435;28;20159;-63
2022/10/13 02:48:27;;;;;;;27.98;16.98;;;9.80;99.90;;;;;;5029894;28;20047;-63
2022/10/13 02:50:53;;;;;;;26.75;16.52;;;9.60;99.90;;;;;;5082737;28;20040;-63
2022/10/13 02:53:19;;;;;;;29.60;17.10;;;9.80;99.90;;;;;;5035226;28;21500;-63
2022/10/13 02:55:45;;;;;;;31.77;17.60;;;9.60;99.90;;;;;;5061373;28;20052;-64
2022/10/13 02:58:10;;;;;;;29.38;16.73;;;9.60;99.90;;;;;;5060274;28;20041;-65
2022/10/13 03:00:38;;;;;;;29.08;15.50;;;9.90;99.90;;;;;;5001396;28;20176;-66
2022/10/13 03:03:04;;;;;;;28.00;16.33;;;9.60;99.90;;;;;;5061179;28;20106;-67
2022/10/13 03:05:30;;;;;;;27.83;16.52;;;9.80;99.90;;;;;;5062078;28;20698;-65
2022/10/13 03:07:55;;;;;;;27.33;15.88;;;9.60;99.90;;;;;;5034398;28;20050;-64
2022/10/13 03:10:21;;;;;;;26.00;15.88;;;9.80;99.90;;;;;;5067079;28;20182;-65
2022/10/13 03:12:47;;;;;;;29.58;16.77;;;9.70;99.90;;;;;;5062229;28;20123;-64
2022/10/13 03:15:13;;;;;;;30.80;16.52;;;9.60;99.90;;;;;;5073306;28;20549;-65
2022/10/13 03:17:38;;;;;;;27.92;16.63;;;9.60;99.90;;;;;;5046458;28;20537;-65
2022/10/13 03:20:05;;;;;;;31.08;16.65;;;9.80;99.90;;;;;;5045173;28;20059;-66
2022/10/13 03:22:32;;;;;;;25.58;15.68;;;9.70;99.90;;;;;;5049993;28;20043;-65
2022/10/13 03:24:57;;;;;;;25.88;17.92;;;9.70;99.90;;;;;;5037010;28;20044;-64
2022/10/13 03:27:23;;;;;;;28.58;17.55;;;9.50;99.90;;;;;;5061578;28;20741;-65
2022/10/13 03:29:49;;;;;;;23.48;16.67;;;9.50;99.90;;;;;;5044375;28;20044;-65
2022/10/13 03:32:15;;;;;;;25.33;16.48;;;9.50;99.90;;;;;;5032142;28;20696;-65
2022/10/13 03:34:41;;;;;;;29.40;16.85;;;9.60;99.90;;;;;;5067397;28;20051;-66
2022/10/13 03:37:07;;;;;;;29.27;17.60;;;9.50;99.90;;;;;;5035139;28;20105;-66
2022/10/13 03:39:33;;;;;;;30.13;17.20;;;9.60;99.90;;;;;;5045693;28;20048;-64
2022/10/13 03:41:59;;;;;;;28.15;16.58;;;9.40;99.90;;;;;;5044218;28;20048;-63
2022/10/13 03:44:24;;;;;;;26.65;17.20;;;9.50;99.90;;;;;;5061420;28;20143;-64
2022/10/13 03:46:51;;;;;;;30.15;18.15;;;9.70;99.90;;;;;;5061452;28;20060;-63
2022/10/13 03:49:17;;;;;;;28.77;17.55;;;9.70;99.90;;;;;;5061606;28;20324;-63
2022/10/13 03:51:43;;;;;;;30.88;18.80;;;9.80;99.90;;;;;;5035615;28;20070;-63
2022/10/13 03:54:12;;;;;;;37.05;19.05;;;9.80;99.90;;;;;;5044760;28;20067;-67
2022/10/13 03:56:39;;;;;;;29.85;17.92;;;9.60;99.90;;;;;;5060787;28;20052;-64
2022/10/13 03:59:05;;;;;;;33.88;20.17;;;9.60;99.90;;;;;;5060634;28;20040;-64
2022/10/13 04:01:32;;;;;;;33.42;20.85;;;9.50;99.90;;;;;;5061348;28;20367;-64
2022/10/13 04:04:01;;;;;;;32.05;20.38;;;9.80;99.90;;;;;;5084756;28;20044;-63
2022/10/13 04:06:27;;;;;;;34.10;20.67;;;9.50;99.90;;;;;;5033848;28;20082;-63
2022/10/13 04:08:53;;;;;;;33.10;20.50;;;9.60;99.90;;;;;;5017791;28;20051;-63
2022/10/13 04:11:20;;;;;;;34.90;21.95;;;9.60;99.90;;;;;;5035531;28;20100;-64
2022/10/13 04:13:46;;;;;;;30.95;20.98;;;9.40;99.90;;;;;;5043835;28;20040;-64
2022/10/13 04:16:20;;;;;;;32.35;21.45;;;9.70;99.90;;;;;;5061564;28;20047;-64
2022/10/13 04:18:51;;;;;;;37.25;23.75;;;9.60;99.90;;;;;;5054841;28;20117;-64
2022/10/13 04:21:17;;;;;;;39.38;23.80;;;9.70;99.90;;;;;;5059410;28;20051;-66
2022/10/13 04:23:43;;;;;;;34.22;23.52;;;9.70;99.90;;;;;;5060820;28;20036;-64
2022/10/13 04:26:17;;;;;;;36.30;24.00;;;9.50;99.90;;;;;;5081252;28;20032;-64
2022/10/13 04:28:45;;;;;;;38.40;25.50;;;9.60;99.90;;;;;;5060659;28;20040;-64
2022/10/13 04:31:11;;;;;;;37.00;25.52;;;9.70;99.90;;;;;;5059711;28;20078;-63
2022/10/13 04:33:36;;;;;;;42.42;26.92;;;9.40;99.90;;;;;;5043504;28;21822;-65
2022/10/13 04:36:04;;;;;;;40.05;25.58;;;9.70;99.90;;;;;;5044267;28;20040;-65
2022/10/13 04:38:29;;;;;;;40.13;25.73;;;9.60;99.90;;;;;;5043628;28;20044;-65
2022/10/13 04:40:55;;;;;;;39.22;25.90;;;9.70;99.90;;;;;;5043081;28;20040;-65
2022/10/13 04:43:21;;;;;;;45.97;28.02;;;9.80;99.90;;;;;;5042997;28;20039;-65
2022/10/13 04:45:46;;;;;;;44.83;29.75;;;9.40;99.90;;;;;;5033461;28;20650;-64
2022/10/13 04:48:13;;;;;;;50.15;30.40;;;9.70;99.90;;;;;;5034850;28;20048;-64
2022/10/13 04:50:39;;;;;;;46.03;29.50;;;9.60;99.90;;;;;;5060125;28;20040;-64
2022/10/13 04:53:05;;;;;;;49.42;30.35;;;9.60;99.90;;;;;;5017048;28;20089;-64
2022/10/13 04:55:33;;;;;;;51.33;31.27;;;9.80;99.90;;;;;;5057952;28;20467;-65
2022/10/13 04:57:59;;;;;;;52.17;33.35;;;9.60;99.90;;;;;;5065505;28;20457;-64
2022/10/13 05:00:24;;;;;;;53.15;30.50;;;9.40;99.90;;;;;;5048212;28;20127;-64
2022/10/13 05:02:50;;;;;;;50.20;32.05;;;9.70;99.90;;;;;;5059543;28;20126;-65
2022/10/13 05:05:16;;;;;;;42.22;29.05;;;9.70;99.90;;;;;;5059649;28;20730;-64
2022/10/13 05:07:42;;;;;;;50.53;31.67;;;9.40;99.90;;;;;;5061079;28;20123;-64
2022/10/13 05:10:08;;;;;;;47.97;32.05;;;9.80;99.90;;;;;;5059203;28;20051;-64
2022/10/13 05:12:34;;;;;;;48.20;30.77;;;9.40;99.90;;;;;;5042606;28;20048;-64
2022/10/13 05:15:00;;;;;;;59.92;36.25;;;9.70;99.90;;;;;;5058245;28;20051;-64
2022/10/13 05:17:27;;;;;;;57.33;36.15;;;9.40;99.90;;;;;;5057899;28;20165;-65
2022/10/13 05:19:53;;;;;;;61.30;35.03;;;9.80;99.90;;;;;;5059120;28;20131;-64
2022/10/13 05:22:19;;;;;;;62.42;38.97;;;9.70;99.90;;;;;;5021570;28;20104;-64
2022/10/13 05:24:44;;;;;;;57.05;37.80;;;9.50;99.90;;;;;;5043210;28;20134;-65
2022/10/13 05:27:12;;;;;;;77.43;43.88;;;9.60;99.90;;;;;;5043518;28;20241;-64
2022/10/13 05:29:39;;;;;;;61.95;38.40;;;9.80;99.90;;;;;;5060003;28;20044;-65
2022/10/13 05:32:05;;;;;;;64.40;37.85;;;9.70;99.90;;;;;;5059862;28;20051;-64
2022/10/13 05:34:32;;;;;;;75.95;44.58;;;9.80;99.90;;;;;;5060718;28;20048;-65
2022/10/13 05:36:58;;;;;;;67.50;40.53;;;9.50;99.90;;;;;;5060939;28;20085;-64
2022/10/13 05:39:24;;;;;;;63.40;40.35;;;9.50;99.90;;;;;;5039427;28;20044;-64
2022/10/13 05:41:50;;;;;;;70.07;43.70;;;9.60;99.90;;;;;;5032879;28;20081;-64
2022/10/13 05:44:16;;;;;;;71.57;41.83;;;9.70;99.90;;;;;;5044982;28;20057;-64
2022/10/13 05:46:42;;;;;;;69.60;42.75;;;9.50;99.90;;;;;;5049541;28;20498;-64
2022/10/13 05:49:08;;;;;;;67.80;41.67;;;9.80;99.90;;;;;;5024339;28;20053;-64
2022/10/13 05:51:40;;;;;;;69.03;39.78;;;9.80;99.90;;;;;;5054162;28;20040;-64
2022/10/13 05:54:19;;;;;;;62.08;37.67;;;9.70;99.90;;;;;;5058323;28;20821;-65
2022/10/13 05:56:58;;;;;;;64.28;36.47;;;9.80;99.90;;;;;;5055785;28;20099;-64
2022/10/13 05:59:27;;;;;;;71.05;40.25;;;9.40;99.90;;;;;;5056709;28;20586;-65
2022/10/13 06:01:53;;;;;;;74.03;44.60;;;9.80;99.90;;;;;;5041256;28;20052;-64
2022/10/13 06:04:24;;;;;;;74.40;43.05;;;9.60;99.90;;;;;;5039428;28;20051;-64
2022/10/13 06:06:50;;;;;;;67.07;41.00;;;9.80;99.90;;;;;;5057445;28;20530;-64
2022/10/13 06:09:16;;;;;;;71.85;43.08;;;9.70;99.90;;;;;;5057225;28;20045;-64
2022/10/13 06:11:41;;;;;;;76.43;42.75;;;9.40;99.90;;;;;;5040732;28;20115;-64
2022/10/13 06:14:07;;;;;;;68.00;42.30;;;9.40;99.90;;;;;;5057982;28;20059;-66
2022/10/13 06:16:36;;;;;;;74.85;42.13;;;9.80;99.90;;;;;;5012738;28;20040;-65
2022/10/13 06:19:03;;;;;;;87.90;48.67;;;9.70;99.90;;;;;;5057031;28;20355;-64
2022/10/13 06:21:28;;;;;;;82.85;44.42;;;9.70;99.90;;;;;;5047292;28;20396;-64
2022/10/13 06:23:54;;;;;;;85.95;48.30;;;9.80;99.90;;;;;;5023792;28;20245;-63
2022/10/13 06:26:20;;;;;;;88.22;50.08;;;9.80;99.90;;;;;;5038005;28;20048;-64
2022/10/13 06:28:45;;;;;;;80.68;47.60;;;9.40;99.90;;;;;;5048663;28;20044;-66
2022/10/13 06:31:11;;;;;;;82.60;48.63;;;9.80;99.90;;;;;;5039305;28;20052;-65
2022/10/13 06:33:37;;;;;;;92.68;50.70;;;9.50;99.90;;;;;;5055075;28;20052;-66
2022/10/13 06:36:04;;;;;;;92.30;52.63;;;9.50;99.90;;;;;;5057137;28;20542;-65
2022/10/13 06:38:31;;;;;;;97.57;53.30;;;9.50;99.90;;;;;;5041097;28;20510;-66
2022/10/13 06:41:01;;;;;;;95.68;52.55;;;9.50;99.90;;;;;;5045698;28;20041;-63
2022/10/13 06:43:27;;;;;;;87.57;49.50;;;9.80;99.90;;;;;;5038768;28;20033;-65
2022/10/13 06:45:56;;;;;;;87.65;49.00;;;9.60;99.90;;;;;;5045990;28;20277;-65
2022/10/13 06:48:22;;;;;;;91.65;51.28;;;9.60;99.90;;;;;;5056595;28;20136;-63
2022/10/13 06:50:48;;;;;;;82.53;46.85;;;9.60;99.90;;;;;;5041403;28;20452;-64
2022/10/13 06:53:13;;;;;;;95.15;53.53;;;9.90;99.90;;;;;;5057991;28;20432;-64
2022/10/13 06:55:41;;;;;;;86.60;49.90;;;9.70;99.90;;;;;;5040961;28;20446;-64
2022/10/13 06:58:06;;;;;;;96.00;50.80;;;9.80;99.90;;;;;;5039443;28;20055;-65
2022/10/13 07:00:32;;;;;;;107.40;57.42;;;9.80;99.90;;;;;;5056213;28;20044;-64
2022/10/13 07:02:58;;;;;;;108.90;59.47;;;10.10;99.90;;;;;;5023119;28;20040;-64
2022/10/13 07:05:23;;;;;;;97.68;55.08;;;9.90;99.90;;;;;;5040173;28;20128;-63
2022/10/13 07:07:52;;;;;;;105.78;55.90;;;10.30;99.90;;;;;;5039517;28;20139;-65
2022/10/13 07:10:18;;;;;;;107.28;57.72;;;10.40;99.90;;;;;;5040153;28;20048;-64
2022/10/13 07:12:44;;;;;;;93.10;53.85;;;10.00;99.90;;;;;;5039032;28;20040;-64
2022/10/13 07:15:10;;;;;;;93.68;53.72;;;10.30;99.90;;;;;;5055486;28;20127;-64
2022/10/13 07:17:36;;;;;;;101.13;54.72;;;10.30;99.90;;;;;;5050464;28;20075;-64
2022/10/13 07:20:03;;;;;;;93.18;53.33;;;10.20;99.90;;;;;;5051323;28;20124;-64
2022/10/13 07:22:29;;;;;;;95.63;52.75;;;10.30;99.90;;;;;;5040514;28;20045;-64
2022/10/13 07:24:55;;;;;;;100.43;56.22;;;10.30;99.90;;;;;;5024285;28;20037;-65
2022/10/13 07:27:21;;;;;;;90.78;52.55;;;10.70;99.90;;;;;;5057721;28;20536;-64
2022/10/13 07:29:47;;;;;;;89.93;48.72;;;10.50;99.90;;;;;;5057988;28;20055;-64
2022/10/13 07:32:12;;;;;;;79.53;47.00;;;10.50;99.90;;;;;;5036018;28;20485;-64
2022/10/13 07:34:38;;;;;;;91.95;52.20;;;10.90;99.90;;;;;;5057896;28;20044;-65
2022/10/13 07:37:04;;;;;;;80.65;47.55;;;10.70;99.90;;;;;;5039452;28;20044;-64
2022/10/13 07:39:30;;;;;;;74.63;47.38;;;10.70;99.90;;;;;;5059639;28;20417;-64
2022/10/13 07:41:55;;;;;;;82.95;51.15;;;10.90;99.90;;;;;;5042229;28;20059;-63
2022/10/13 07:44:21;;;;;;;77.30;48.25;;;11.30;99.90;;;;;;5012364;28;20044;-63
2022/10/13 07:46:47;;;;;;;67.53;42.35;;;11.30;99.90;;;;;;5058743;28;20985;-64
2022/10/13 07:49:13;;;;;;;80.13;50.75;;;11.10;99.90;;;;;;5042999;28;20123;-65
2022/10/13 07:51:38;;;;;;;60.67;42.45;;;11.20;99.90;;;;;;5060175;28;20052;-64
2022/10/13 07:54:04;;;;;;;84.57;50.42;;;11.40;99.90;;;;;;5061303;28;20125;-65
2022/10/13 07:56:30;;;;;;;55.85;38.58;;;11.60;99.90;;;;;;5027791;28;20127;-64
2022/10/13 07:58:56;;;;;;;59.47;40.50;;;11.80;99.90;;;;;;5028185;28;20047;-65
2022/10/13 08:01:22;;;;;;;58.03;40.92;;;11.60;99.90;;;;;;5044427;28;20045;-65
2022/10/13 08:03:47;;;;;;;48.88;34.33;;;11.60;99.90;;;;;;5044570;28;20051;-64
2022/10/13 08:06:13;;;;;;;56.97;37.47;;;11.90;99.90;;;;;;5028383;28;20045;-63
2022/10/13 08:08:39;;;;;;;51.05;35.40;;;11.90;99.90;;;;;;5060935;28;20047;-64
2022/10/13 08:11:11;;;;;;;48.72;36.72;;;11.90;99.90;;;;;;5060496;28;20483;-64
2022/10/13 08:13:37;;;;;;;54.58;36.17;;;11.70;99.90;;;;;;5027377;28;20044;-64
2022/10/13 08:16:03;;;;;;;52.88;36.28;;;11.70;99.90;;;;;;5061362;28;20240;-64
2022/10/13 08:18:29;;;;;;;59.30;38.65;;;11.60;99.90;;;;;;5041512;28;20123;-65
2022/10/13 08:20:58;;;;;;;54.33;37.22;;;11.80;99.90;;;;;;5054098;28;20036;-65
2022/10/13 08:23:24;;;;;;;47.42;33.72;;;11.90;99.90;;;;;;5043100;28;20048;-65
2022/10/13 08:25:50;;;;;;;51.83;36.33;;;11.90;99.90;;;;;;5040740;28;20507;-65
2022/10/13 08:28:22;;;;;;;47.67;34.88;;;11.70;99.90;;;;;;5034554;28;20502;-64
2022/10/13 08:30:49;;;;;;;51.40;34.95;;;11.50;99.90;;;;;;5056083;28;20548;-64
2022/10/13 08:33:15;;;;;;;48.50;34.92;;;11.90;99.90;;;;;;5058136;28;20402;-64
2022/10/13 08:35:41;;;;;;;49.85;35.35;;;11.60;99.90;;;;;;5058587;28;20074;-65
2022/10/13 08:38:07;;;;;;;46.45;35.13;;;12.00;99.90;;;;;;5058854;28;20049;-64
2022/10/13 08:40:34;;;;;;;49.38;35.22;;;11.90;99.90;;;;;;5042458;28;20040;-64
2022/10/13 08:43:00;;;;;;;42.40;32.50;;;12.20;99.90;;;;;;5058127;28;20115;-64
2022/10/13 08:45:29;;;;;;;45.25;32.33;;;12.10;99.90;;;;;;5042121;28;20130;-64
2022/10/13 08:48:05;;;;;;;44.25;32.60;;;11.80;99.90;;;;;;5030409;28;20044;-64
2022/10/13 08:50:35;;;;;;;44.40;33.97;;;12.20;99.90;;;;;;5041347;28;20466;-65
2022/10/13 08:53:06;;;;;;;42.53;31.30;;;12.10;99.90;;;;;;5057962;28;20662;-65
2022/10/13 08:55:33;;;;;;;39.83;31.67;;;11.90;99.90;;;;;;5042671;28;20040;-64
2022/10/13 08:58:01;;;;;;;48.33;35.08;;;12.00;99.90;;;;;;5041907;28;20189;-65
2022/10/13 09:00:29;;;;;;;43.80;32.38;;;12.20;99.90;;;;;;5057996;28;20047;-64
2022/10/13 09:03:10;;;;;;;43.22;32.38;;;11.90;99.90;;;;;;5024327;28;20042;-65
2022/10/13 09:05:47;;;;;;;49.17;35.22;;;12.00;99.90;;;;;;5039392;28;20036;-65
2022/10/13 09:08:18;;;;;;;45.65;33.33;;;12.40;99.90;;;;;;5031455;28;20057;-65
2022/10/13 09:10:49;;;;;;;44.42;32.25;;;12.50;99.90;;;;;;5038635;28;20047;-63
2022/10/13 09:13:14;;;;;;;40.35;31.85;;;12.30;99.90;;;;;;5028852;28;20532;-64
2022/10/13 09:15:45;;;;;;;54.58;37.03;;;12.40;99.90;;;;;;5058796;28;20040;-65
2022/10/13 09:18:12;;;;;;;48.40;33.60;;;12.20;99.90;;;;;;5025736;28;20047;-64
2022/10/13 09:20:39;;;;;;;44.83;31.17;;;12.30;99.90;;;;;;5059788;28;20049;-64
2022/10/13 09:23:17;;;;;;;41.75;30.48;;;12.20;99.90;;;;;;5059441;28;20513;-65
2022/10/13 09:25:47;;;;;;;43.83;31.00;;;12.50;99.90;;;;;;5059048;28;20048;-64
2022/10/13 09:28:22;;;;;;;46.95;34.85;;;12.60;99.90;;;;;;5058926;28;20485;-64
2022/10/13 09:30:59;;;;;;;49.25;33.85;;;12.20;99.90;;;;;;5041791;28;20048;-65
2022/10/13 09:33:25;;;;;;;50.17;34.78;;;12.20;99.90;;;;;;5058675;28;20509;-64
2022/10/13 09:36:00;;;;;;;48.72;35.63;;;12.90;99.90;;;;;;5042406;28;20159;-64
2022/10/13 09:38:26;;;;;;;44.85;32.05;;;13.00;99.90;;;;;;5058452;28;20463;-64
2022/10/13 09:41:12;;;;;;;39.03;31.42;;;13.00;99.90;;;;;;5042495;28;20098;-64
2022/10/13 09:43:41;;;;;;;43.97;33.30;;;13.10;99.90;;;;;;5032991;28;20123;-65
2022/10/13 09:46:31;;;;;;;45.47;33.70;;;12.90;99.90;;;;;;5059086;28;20537;-65
2022/10/13 09:49:37;;;;;;;44.90;33.80;;;12.60;99.90;;;;;;5026721;28;20048;-64
2022/10/13 09:52:15;;;;;;;47.40;33.90;;;13.20;99.90;;;;;;5041209;28;20916;-65
2022/10/13 09:54:47;;;;;;;46.95;34.17;;;12.80;99.90;;;;;;5058897;28;20273;-64
2022/10/13 09:57:16;;;;;;;47.13;35.05;;;13.20;99.90;;;;;;5057195;28;20079;-63
2022/10/13 10:00:12;;;;;;;48.90;37.88;;;13.10;99.90;;;;;;5041984;28;20123;-65
2022/10/13 10:02:51;;;;;;;52.42;37.55;;;13.40;99.90;;;;;;5057279;28;20333;-64
2022/10/13 10:05:31;;;;;;;50.13;37.40;;;13.00;99.90;;;;;;5057794;28;20036;-65
2022/10/13 10:08:05;;;;;;;48.70;35.80;;;12.80;99.90;;;;;;5041882;28;20037;-64
2022/10/13 10:10:38;;;;;;;49.92;37.00;;;12.80;99.90;;;;;;5026254;28;20049;-63
2022/10/13 10:13:03;;;;;;;50.53;36.47;;;12.80;99.90;;;;;;5025800;28;20708;-64
2022/10/13 10:15:55;;;;;;;50.15;35.70;;;13.00;99.90;;;;;;5042240;28;20044;-65
2022/10/13 10:18:30;;;;;;;62.03;42.42;;;12.80;99.90;;;;;;5057045;28;20083;-64
2022/10/13 10:21:05;;;;;;;56.75;40.25;;;12.80;99.90;;;;;;5030461;28;20123;-65
2022/10/13 10:23:34;;;;;;;57.53;40.50;;;12.90;99.90;;;;;;5041195;28;20115;-65
2022/10/13 10:26:04;;;;;;;55.00;39.15;;;13.10;99.90;;;;;;5057645;28;20040;-65
2022/10/13 10:28:38;;;;;;;52.10;38.60;;;13.20;99.90;;;;;;5034526;28;20044;-64
2022/10/13 10:31:42;;;;;;;54.00;39.63;;;13.00;99.90;;;;;;5058005;28;20432;-65
2022/10/13 10:34:27;;;;;;;54.58;37.53;;;13.60;99.90;;;;;;5042396;28;20044;-65
2022/10/13 10:37:15;;;;;;;52.72;36.95;;;13.40;99.90;;;;;;5026473;28;20113;-65
2022/10/13 10:40:02;;;;;;;53.70;39.72;;;13.20;99.90;;;;;;5042009;28;20497;-66
2022/10/13 10:43:06;;;;;;;51.50;37.70;;;13.80;99.90;;;;;;5058391;28;20051;-65
2022/10/13 10:45:38;;;;;;;50.58;37.03;;;13.40;99.90;;;;;;5058008;28;20070;-64
2022/10/13 10:48:34;;;;;;;46.47;34.20;;;13.60;99.90;;;;;;5058284;28;20048;-65
2022/10/13 10:51:00;;;;;;;47.47;35.50;;;13.80;99.90;;;;;;5043718;28;20113;-65
2022/10/13 10:53:48;;;;;;;46.42;34.95;;;13.90;99.90;;;;;;5024815;28;20094;-64
2022/10/13 10:56:37;;;;;;;51.08;37.15;;;13.60;99.90;;;;;;5040192;28;20048;-64
2022/10/13 10:59:35;;;;;;;47.55;34.05;;;13.90;99.90;;;;;;5058020;28;20098;-64
2022/10/13 11:02:06;;;;;;;51.67;38.50;;;13.90;99.90;;;;;;5040966;28;20530;-65
2022/10/13 11:04:44;;;;;;;50.28;36.60;;;13.30;99.90;;;;;;5058467;28;20040;-64
2022/10/13 11:07:22;;;;;;;53.22;37.67;;;13.50;99.90;;;;;;5058463;28;20138;-67
2022/10/13 11:09:47;;;;;;;51.00;37.47;;;13.40;99.90;;;;;;5058224;28;20117;-64
2022/10/13 11:12:19;;;;;;;52.10;39.53;;;13.70;99.90;;;;;;5057801;28;20501;-65
2022/10/13 11:15:10;;;;;;;61.65;42.85;;;13.80;99.90;;;;;;5045116;28;20051;-65
2022/10/13 11:17:38;;;;;;;44.03;35.53;;;13.80;99.90;;;;;;5062905;28;20051;-64
2022/10/13 11:20:19;;;;;;;44.97;34.38;;;13.30;99.90;;;;;;5039629;28;20045;-65
2022/10/13 11:22:56;;;;;;;41.63;33.47;;;13.70;99.90;;;;;;5053605;28;20165;-63
2022/10/13 11:25:43;;;;;;;45.97;35.35;;;13.50;99.90;;;;;;5060475;28;20552;-67
2022/10/13 11:28:26;;;;;;;47.42;35.67;;;13.40;99.90;;;;;;5061736;28;20040;-66
2022/10/13 11:31:03;;;;;;;40.97;31.97;;;13.90;99.90;;;;;;5064961;28;20048;-63
2022/10/13 11:33:35;;;;;;;50.83;38.20;;;13.40;99.90;;;;;;5060718;28;20044;-64
2022/10/13 11:36:46;;;;;;;42.13;32.00;;;13.40;99.90;;;;;;5062246;28;20043;-64
2022/10/13 11:39:27;;;;;;;46.78;35.33;;;13.50;99.90;;;;;;5028612;28;20502;-64
2022/10/13 11:41:55;;;;;;;51.20;36.70;;;13.60;99.90;;;;;;5061589;28;20040;-64
2022/10/13 11:44:32;;;;;;;37.17;32.13;;;13.70;99.90;;;;;;5063129;28;20059;-64
2022/10/13 11:47:17;;;;;;;39.75;32.97;;;13.60;99.90;;;;;;5063978;28;20366;-67
2022/10/13 11:50:17;;;;;;;42.40;35.08;;;13.80;99.90;;;;;;5045973;28;20460;-64
2022/10/13 11:53:10;;;;;;;46.13;36.25;;;13.50;99.90;;;;;;5063394;28;20045;-64
2022/10/13 11:55:51;;;;;;;45.10;35.60;;;13.50;99.90;;;;;;5062471;28;20081;-64
2022/10/13 11:58:29;;;;;;;40.42;32.38;;;13.60;99.90;;;;;;5045203;28;20059;-64
2022/10/13 12:01:00;;;;;;;35.10;30.10;;;14.00;99.90;;;;;;5045662;28;20040;-65
2022/10/13 12:03:29;;;;;;;38.53;30.00;;;14.30;99.90;;;;;;5042428;28;20043;-65
2022/10/13 12:06:04;;;;;;;36.92;30.65;;;14.30;99.90;;;;;;5059320;28;20144;-66
2022/10/13 12:08:36;;;;;;;35.80;30.25;;;13.80;99.90;;;;;;5059625;28;20043;-67
2022/10/13 12:11:06;;;;;;;31.35;27.92;;;13.80;99.90;;;;;;5028859;28;20048;-67
2022/10/13 12:13:34;;;;;;;35.50;29.88;;;14.50;99.90;;;;;;5061344;28;20540;-65
2022/10/13 12:16:04;;;;;;;37.03;29.15;;;14.00;99.90;;;;;;5061693;28;20422;-65
2022/10/13 12:18:37;;;;;;;33.60;28.17;;;14.00;99.90;;;;;;5044661;28;20044;-65
2022/10/13 12:21:10;;;;;;;31.40;26.63;;;13.80;99.90;;;;;;5058512;28;20036;-64
2022/10/13 12:23:36;;;;;;;36.80;30.35;;;13.90;99.90;;;;;;5058478;28;20502;-65
2022/10/13 12:26:02;;;;;;;35.53;29.55;;;14.40;99.90;;;;;;5060865;28;20068;-64
2022/10/13 12:28:48;;;;;;;31.73;28.27;;;13.70;99.90;;;;;;5058357;28;20498;-66
2022/10/13 12:31:23;;;;;;;38.25;30.67;;;14.40;99.90;;;;;;5058443;28;20049;-65
2022/10/13 12:33:54;;;;;;;34.95;29.67;;;14.30;99.90;;;;;;5030238;28;20040;-65
2022/10/13 12:36:33;;;;;;;40.88;33.92;;;14.10;99.90;;;;;;5057653;28;20620;-65
2022/10/13 12:39:06;;;;;;;31.35;27.85;;;14.40;99.90;;;;;;5058571;28;20050;-65
2022/10/13 12:41:35;;;;;;;34.15;28.73;;;14.10;99.90;;;;;;5058842;28;20048;-64
2022/10/13 12:44:03;;;;;;;31.58;27.92;;;14.30;99.90;;;;;;5041946;28;20040;-64
2022/10/13 12:47:03;;;;;;;36.80;30.35;;;14.60;99.90;;;;;;5041499;28;20063;-66
2022/10/13 12:49:35;;;;;;;36.10;30.80;;;14.60;99.90;;;;;;5057789;28;20083;-64
2022/10/13 12:52:23;;;;;;;35.10;31.10;;;14.10;99.90;;;;;;5039687;28;20102;-65